createdAt,value
2022-09-07T00:00:31.399Z,17.01
2022-09-07T00:02:04.213Z,17.00
2022-09-07T00:03:36.478Z,17.01
2022-09-07T00:05:08.802Z,17.00
2022-09-07T00:06:41.288Z,17.00
2022-09-07T00:08:14.318Z,16.99
2022-09-07T00:09:46.544Z,16.97
2022-09-07T00:11:19.313Z,16.98
2022-09-07T00:12:52.192Z,16.98
2022-09-07T00:14:24.345Z,16.98
2022-09-07T00:15:56.659Z,17.00
2022-09-07T00:17:29.105Z,17.00
2022-09-07T00:19:02.363Z,17.01
2022-09-07T00:20:35.060Z,17.01
2022-09-07T00:22:07.579Z,16.99
2022-09-07T00:23:40.463Z,16.99
2022-09-07T00:25:13.027Z,16.99
2022-09-07T00:26:45.146Z,17.01
2022-09-07T00:28:17.310Z,17.00
2022-09-07T00:29:49.539Z,16.98
2022-09-07T00:31:23.044Z,16.97
2022-09-07T00:32:55.393Z,16.99
2022-09-07T00:34:27.480Z,17.01
2022-09-07T00:35:59.591Z,17.03
2022-09-07T00:37:32.018Z,17.03
2022-09-07T00:39:05.661Z,17.02
2022-09-07T00:40:37.842Z,17.03
2022-09-07T00:42:10.023Z,17.03
2022-09-07T00:43:44.901Z,17.04
2022-09-07T00:45:18.225Z,17.05
2022-09-07T00:46:50.618Z,17.08
2022-09-07T00:48:25.434Z,17.08
2022-09-07T00:50:01.782Z,17.11
2022-09-07T00:51:39.694Z,17.13
2022-09-07T00:53:20.626Z,17.12
2022-09-07T00:54:54.395Z,17.09
2022-09-07T00:56:29.889Z,17.07
2022-09-07T00:58:02.391Z,17.06
2022-09-07T00:59:36.045Z,17.04
2022-09-07T01:01:09.786Z,17.02
2022-09-07T01:02:42.490Z,16.99
2022-09-07T01:04:17.042Z,16.98
2022-09-07T01:05:56.278Z,16.95
2022-09-07T01:07:28.589Z,16.92
2022-09-07T01:09:03.457Z,16.91
2022-09-07T01:10:35.949Z,16.89
2022-09-07T01:12:08.712Z,16.88
2022-09-07T01:13:42.488Z,16.84
2022-09-07T01:15:15.019Z,16.82
2022-09-07T01:16:50.042Z,16.81
2022-09-07T01:18:27.961Z,16.78
2022-09-07T01:20:00.060Z,16.77
2022-09-07T01:21:35.141Z,16.73
2022-09-07T01:23:16.820Z,16.71
2022-09-07T01:24:58.333Z,16.71
2022-09-07T01:26:45.643Z,16.70
2022-09-07T01:28:18.027Z,16.70
2022-09-07T01:29:54.875Z,16.69
2022-09-07T01:31:36.334Z,16.66
2022-09-07T01:33:26.958Z,16.64
2022-09-07T01:35:01.716Z,16.62
2022-09-07T01:36:35.202Z,16.63
2022-09-07T01:38:26.547Z,16.65
2022-09-07T01:40:17.944Z,16.65
2022-09-07T01:41:56.995Z,16.63
2022-09-07T01:43:33.356Z,16.63
2022-09-07T01:45:11.457Z,16.61
2022-09-07T01:46:45.841Z,16.58
2022-09-07T01:48:18.957Z,16.56
2022-09-07T01:49:56.246Z,16.56
2022-09-07T01:51:31.599Z,16.56
2022-09-07T01:53:09.243Z,16.54
2022-09-07T01:54:59.909Z,16.52
2022-09-07T01:56:38.944Z,16.50
2022-09-07T01:58:11.068Z,16.49
2022-09-07T02:00:09.160Z,16.49
2022-09-07T02:01:52.349Z,16.47
2022-09-07T02:03:29.095Z,16.49
2022-09-07T02:05:06.476Z,16.50
2022-09-07T02:06:38.585Z,16.48
2022-09-07T02:08:16.602Z,16.48
2022-09-07T02:09:52.878Z,16.48
2022-09-07T02:11:29.813Z,16.44
2022-09-07T02:13:08.198Z,16.41
2022-09-07T02:14:44.162Z,16.41
2022-09-07T02:16:29.778Z,16.40
2022-09-07T02:18:04.332Z,16.39
2022-09-07T02:20:05.906Z,16.38
2022-09-07T02:21:39.920Z,16.37
2022-09-07T02:23:15.928Z,16.37
2022-09-07T02:24:50.668Z,16.37
2022-09-07T02:26:23.833Z,16.39
2022-09-07T02:28:10.155Z,16.37
2022-09-07T02:29:43.550Z,16.36
2022-09-07T02:31:16.061Z,16.34
2022-09-07T02:32:48.298Z,16.34
2022-09-07T02:34:21.008Z,16.32
2022-09-07T02:35:53.252Z,16.30
2022-09-07T02:37:27.662Z,16.29
2022-09-07T02:38:59.798Z,16.32
2022-09-07T02:40:32.479Z,16.30
2022-09-07T02:42:05.121Z,16.30
2022-09-07T02:43:37.389Z,16.29
2022-09-07T02:45:10.784Z,16.31
2022-09-07T02:46:52.689Z,16.31
2022-09-07T02:48:33.898Z,16.30
2022-09-07T02:50:19.898Z,16.30
2022-09-07T02:52:07.314Z,16.29
2022-09-07T02:54:02.309Z,16.29
2022-09-07T02:55:46.495Z,16.30
2022-09-07T02:57:26.020Z,16.28
2022-09-07T02:59:06.019Z,16.27
2022-09-07T03:00:56.974Z,16.26
2022-09-07T03:02:33.586Z,16.27
2022-09-07T03:04:05.780Z,16.25
2022-09-07T03:05:37.895Z,16.22
2022-09-07T03:07:17.689Z,16.22
2022-09-07T03:08:52.391Z,16.21
2022-09-07T03:10:24.615Z,16.20
2022-09-07T03:11:57.175Z,16.18
2022-09-07T03:13:29.705Z,16.18
2022-09-07T03:15:02.248Z,16.21
2022-09-07T03:16:35.557Z,16.21
2022-09-07T03:18:07.746Z,16.21
2022-09-07T03:19:40.197Z,16.21
2022-09-07T03:21:12.737Z,16.24
2022-09-07T03:22:45.495Z,16.22
2022-09-07T03:24:17.869Z,16.23
2022-09-07T03:25:50.079Z,16.23
2022-09-07T03:27:22.514Z,16.27
2022-09-07T03:28:54.724Z,16.25
2022-09-07T03:30:26.868Z,16.22
2022-09-07T03:31:59.022Z,16.19
2022-09-07T03:33:31.362Z,16.18
2022-09-07T03:35:04.301Z,16.18
2022-09-07T03:36:36.574Z,16.20
2022-09-07T03:38:08.630Z,16.21
2022-09-07T03:39:41.152Z,16.21
2022-09-07T03:41:13.372Z,16.22
2022-09-07T03:42:48.554Z,16.23
2022-09-07T03:44:20.660Z,16.21
2022-09-07T03:46:03.324Z,16.22
2022-09-07T03:47:39.813Z,16.23
2022-09-07T03:49:11.890Z,16.24
2022-09-07T03:50:44.029Z,16.27
2022-09-07T03:52:16.670Z,16.28
2022-09-07T03:53:48.816Z,16.27
2022-09-07T03:55:21.847Z,16.27
2022-09-07T03:56:53.937Z,16.24
2022-09-07T03:58:28.198Z,16.24
2022-09-07T04:00:00.367Z,16.22
2022-09-07T04:01:32.469Z,16.22
2022-09-07T04:03:04.652Z,16.22
2022-09-07T04:04:37.046Z,16.22
2022-09-07T04:06:09.943Z,16.21
2022-09-07T04:07:42.011Z,16.23
2022-09-07T04:09:14.651Z,16.23
2022-09-07T04:10:47.079Z,16.22
2022-09-07T04:12:19.315Z,16.25
2022-09-07T04:13:51.523Z,16.24
2022-09-07T04:15:23.625Z,16.23
2022-09-07T04:16:56.447Z,16.25
2022-09-07T04:18:28.552Z,16.27
2022-09-07T04:20:00.627Z,16.26
2022-09-07T04:21:33.383Z,16.28
2022-09-07T04:23:06.262Z,16.27
2022-09-07T04:24:38.470Z,16.24
2022-09-07T04:26:14.996Z,16.27
2022-09-07T04:27:47.187Z,16.27
2022-09-07T04:29:19.616Z,16.28
2022-09-07T04:30:51.771Z,16.31
2022-09-07T04:32:23.840Z,16.36
2022-09-07T04:33:56.232Z,16.39
2022-09-07T04:35:28.708Z,16.41
2022-09-07T04:37:00.957Z,16.45
2022-09-07T04:38:33.145Z,16.50
2022-09-07T04:40:05.642Z,16.53
2022-09-07T04:41:38.819Z,16.53
2022-09-07T04:43:13.178Z,16.57
2022-09-07T04:44:45.817Z,16.61
2022-09-07T04:46:22.982Z,16.66
2022-09-07T04:47:55.451Z,16.70
2022-09-07T04:49:27.557Z,16.73
2022-09-07T04:51:07.018Z,16.77
2022-09-07T04:52:39.223Z,16.82
2022-09-07T04:54:11.814Z,16.87
2022-09-07T04:55:43.966Z,16.93
2022-09-07T04:57:16.219Z,16.96
2022-09-07T04:58:48.333Z,17.01
2022-09-07T05:00:20.763Z,17.03
2022-09-07T05:01:52.965Z,17.07
2022-09-07T05:03:25.081Z,17.11
2022-09-07T05:05:02.024Z,17.14
2022-09-07T05:06:35.300Z,17.18
2022-09-07T05:08:07.394Z,17.22
2022-09-07T05:09:39.565Z,17.28
2022-09-07T05:11:12.366Z,17.32
2022-09-07T05:12:44.881Z,17.38
2022-09-07T05:14:17.025Z,17.44
2022-09-07T05:15:49.361Z,17.51
2022-09-07T05:17:21.714Z,17.58
2022-09-07T05:18:58.452Z,17.77
2022-09-07T05:20:31.049Z,18.29
2022-09-07T05:22:03.174Z,18.64
2022-09-07T05:23:35.321Z,18.97
2022-09-07T05:25:08.458Z,19.46
2022-09-07T05:26:40.712Z,19.89
2022-09-07T05:28:17.303Z,20.14
2022-09-07T05:30:07.041Z,20.43
2022-09-07T05:31:39.618Z,20.93
2022-09-07T05:33:12.426Z,21.31
2022-09-07T05:34:46.034Z,21.73
2022-09-07T05:36:18.883Z,22.06
2022-09-07T05:37:51.362Z,22.41
2022-09-07T05:39:23.614Z,22.80
2022-09-07T05:40:55.915Z,23.10
2022-09-07T05:42:28.029Z,23.26
2022-09-07T05:45:56.438Z,23.46
2022-09-07T05:47:28.574Z,23.53
2022-09-07T05:49:03.189Z,23.62
2022-09-07T05:50:35.933Z,23.76
2022-09-07T05:52:08.282Z,23.87
2022-09-07T05:53:42.190Z,23.86
2022-09-07T05:55:29.557Z,23.85
2022-09-07T05:57:03.697Z,24.03
2022-09-07T05:58:36.372Z,24.23
2022-09-07T06:00:09.090Z,24.40
2022-09-07T06:01:44.464Z,24.49
2022-09-07T06:03:16.753Z,24.43
2022-09-07T06:04:48.961Z,24.63
2022-09-07T06:06:21.042Z,25.04
2022-09-07T06:07:53.445Z,25.24
2022-09-07T06:09:30.236Z,25.33
2022-09-07T06:11:06.271Z,25.17
2022-09-07T06:12:38.753Z,25.00
2022-09-07T06:14:11.234Z,24.98
2022-09-07T06:15:43.512Z,24.94
2022-09-07T06:17:15.575Z,24.94
2022-09-07T06:18:48.667Z,24.96
2022-09-07T06:20:21.096Z,25.14
2022-09-07T06:21:53.251Z,25.39
2022-09-07T06:23:25.358Z,25.61
2022-09-07T06:24:57.573Z,25.84
2022-09-07T06:26:30.073Z,26.10
2022-09-07T06:28:02.358Z,26.26
2022-09-07T06:29:35.756Z,26.22
2022-09-07T06:31:18.408Z,25.98
2022-09-07T06:32:50.858Z,25.73
2022-09-07T06:34:23.160Z,25.80
2022-09-07T06:35:59.163Z,25.93
2022-09-07T06:37:31.744Z,26.18
2022-09-07T06:39:04.268Z,26.13
2022-09-07T06:40:36.365Z,26.10
2022-09-07T06:42:08.650Z,26.01
2022-09-07T06:43:47.802Z,26.05
2022-09-07T06:45:20.219Z,25.93
2022-09-07T06:47:07.743Z,25.86
2022-09-07T06:48:44.198Z,25.94
2022-09-07T06:50:17.757Z,26.06
2022-09-07T06:51:50.171Z,26.26
2022-09-07T06:53:39.507Z,26.44
2022-09-07T06:55:13.882Z,26.86
2022-09-07T06:56:46.030Z,27.05
2022-09-07T06:58:19.115Z,26.91
2022-09-07T06:59:51.242Z,26.78
2022-09-07T07:01:26.504Z,26.68
2022-09-07T07:02:58.793Z,26.72
2022-09-07T07:04:32.403Z,26.93
2022-09-07T07:06:06.485Z,27.10
2022-09-07T07:07:38.589Z,27.11
2022-09-07T07:09:11.330Z,27.04
2022-09-07T07:10:45.265Z,26.89
2022-09-07T07:13:49.274Z,26.98
2022-09-07T07:15:22.119Z,26.87
2022-09-07T07:16:54.624Z,26.63
2022-09-07T07:18:26.771Z,26.73
2022-09-07T07:19:59.007Z,27.07
2022-09-07T07:21:42.875Z,27.04
2022-09-07T07:23:24.394Z,27.12
2022-09-07T07:24:56.745Z,26.94
2022-09-07T07:26:28.889Z,27.01
2022-09-07T07:29:54.612Z,27.82
2022-09-07T07:31:27.205Z,28.13
2022-09-07T07:32:59.373Z,28.15
2022-09-07T07:34:31.690Z,28.32
2022-09-07T07:36:11.748Z,28.15
2022-09-07T07:37:43.825Z,27.83
2022-09-07T07:43:00.955Z,27.33
2022-09-07T07:44:33.111Z,27.44
2022-09-07T07:46:06.275Z,27.43
2022-09-07T07:47:38.838Z,27.20
2022-09-07T07:49:10.974Z,27.04
2022-09-07T07:50:43.058Z,27.08
2022-09-07T07:54:09.598Z,27.04
2022-09-07T07:55:43.775Z,27.19
2022-09-07T07:57:18.930Z,27.12
2022-09-07T07:58:52.512Z,27.05
2022-09-07T08:00:37.696Z,27.00
2022-09-07T08:02:17.925Z,27.30
2022-09-07T08:03:50.889Z,27.50
2022-09-07T08:05:23.148Z,27.49
2022-09-07T08:06:57.360Z,27.49
2022-09-07T08:08:30.312Z,27.38
2022-09-07T08:10:02.579Z,27.26
2022-09-07T08:11:35.580Z,27.28
2022-09-07T08:13:08.718Z,27.14
2022-09-07T08:14:41.594Z,27.04
2022-09-07T08:16:14.052Z,26.96
2022-09-07T08:17:49.920Z,26.88
2022-09-07T08:19:22.540Z,26.69
2022-09-07T08:21:00.470Z,26.54
2022-09-07T08:22:34.875Z,26.53
2022-09-07T08:24:07.343Z,26.44
2022-09-07T08:25:48.600Z,26.37
2022-09-07T08:27:21.452Z,26.25
2022-09-07T08:28:53.936Z,26.22
2022-09-07T08:30:26.126Z,26.04
2022-09-07T08:31:58.633Z,25.90
2022-09-07T08:33:31.141Z,25.85
2022-09-07T08:35:03.422Z,25.84
2022-09-07T08:36:35.875Z,25.82
2022-09-07T08:38:08.530Z,25.81
2022-09-07T08:39:42.074Z,25.54
2022-09-07T08:41:26.714Z,25.41
2022-09-07T08:43:08.903Z,25.25
2022-09-07T08:44:45.627Z,25.30
2022-09-07T08:46:17.741Z,25.38
2022-09-07T08:47:51.460Z,25.33
2022-09-07T08:49:42.961Z,25.38
2022-09-07T08:51:38.435Z,25.30
2022-09-07T08:53:18.765Z,25.11
2022-09-07T08:55:00.770Z,24.95
2022-09-07T08:56:37.657Z,24.87
2022-09-07T08:58:27.104Z,24.76
2022-09-07T09:00:11.769Z,24.65
2022-09-07T09:02:27.076Z,24.49
2022-09-07T09:04:15.364Z,24.33
2022-09-07T09:05:37.861Z,24.26
2022-09-07T09:07:16.604Z,24.16
2022-09-07T09:08:51.754Z,24.17
2022-09-07T09:10:42.890Z,23.98
2022-09-07T09:12:38.511Z,23.87
2022-09-07T09:14:33.241Z,23.85
2022-09-07T09:16:10.387Z,23.80
2022-09-07T09:18:01.549Z,23.80
2022-09-07T09:19:50.542Z,23.83
2022-09-07T09:21:22.823Z,23.89
2022-09-07T09:22:59.269Z,23.88
2022-09-07T09:24:37.383Z,23.84
2022-09-07T09:26:22.595Z,23.89
2022-09-07T09:27:55.104Z,23.92
2022-09-07T09:29:27.283Z,23.94
2022-09-07T09:30:59.446Z,23.98
2022-09-07T09:32:33.406Z,23.97
2022-09-07T09:34:05.850Z,24.01
2022-09-07T09:35:38.971Z,23.94
2022-09-07T09:37:11.462Z,23.97
2022-09-07T09:38:43.986Z,23.98
2022-09-07T09:40:22.149Z,24.00
2022-09-07T09:41:56.106Z,24.01
2022-09-07T09:43:34.092Z,24.03
2022-09-07T09:45:12.141Z,24.06
2022-09-07T09:47:29.572Z,24.14
2022-09-07T09:48:42.154Z,24.16
2022-09-07T09:52:33.597Z,24.05
2022-09-07T09:54:20.844Z,24.12
2022-09-07T09:55:53.957Z,24.16
2022-09-07T09:59:04.725Z,24.17
2022-09-07T10:01:34.663Z,24.34
2022-09-07T10:05:39.597Z,24.49
2022-09-07T10:07:21.275Z,24.45
2022-09-07T10:08:57.880Z,24.44
2022-09-07T10:10:31.514Z,24.44
2022-09-07T10:12:05.694Z,24.49
2022-09-07T10:13:53.078Z,24.48
2022-09-07T10:15:40.202Z,24.57
2022-09-07T10:17:19.228Z,24.61
2022-09-07T10:18:58.749Z,24.63
2022-09-07T10:20:33.634Z,24.61
2022-09-07T10:22:23.825Z,24.60
2022-09-07T10:24:00.543Z,24.65
2022-09-07T10:25:36.794Z,24.70
2022-09-07T10:27:29.489Z,24.78
2022-09-07T10:29:22.173Z,24.76
2022-09-07T10:30:54.566Z,24.78
2022-09-07T10:32:29.285Z,24.80
2022-09-07T10:34:29.996Z,24.80
2022-09-07T10:36:07.372Z,24.75
2022-09-07T10:37:47.711Z,24.76
2022-09-07T10:39:28.149Z,24.85
2022-09-07T10:41:04.281Z,24.88
2022-09-07T10:42:38.290Z,24.91
2022-09-07T10:44:17.766Z,25.00
2022-09-07T10:46:07.294Z,25.07
2022-09-07T10:47:50.252Z,25.12
2022-09-07T10:49:25.346Z,25.12
2022-09-07T10:51:03.122Z,25.13
2022-09-07T10:52:52.290Z,25.19
2022-09-07T10:54:30.736Z,25.26
2022-09-07T10:56:06.168Z,25.30
2022-09-07T10:57:42.127Z,25.38
2022-09-07T10:59:15.989Z,25.47
2022-09-07T11:01:20.946Z,25.59
2022-09-07T11:03:25.612Z,25.68
2022-09-07T11:05:01.073Z,25.77
2022-09-07T11:06:55.259Z,25.83
2022-09-07T11:10:42.281Z,25.99
2022-09-07T11:12:21.315Z,25.96
2022-09-07T11:14:12.573Z,25.86
2022-09-07T11:15:49.537Z,25.78
2022-09-07T11:17:27.847Z,25.77
2022-09-07T11:19:37.278Z,25.80
2022-09-07T11:21:14.649Z,25.88
2022-09-07T11:22:49.770Z,25.92
2022-09-07T11:24:42.458Z,25.94
2022-09-07T11:26:17.271Z,25.94
2022-09-07T11:28:12.945Z,25.87
2022-09-07T11:29:45.398Z,25.90
2022-09-07T11:31:24.923Z,25.86
2022-09-07T11:33:01.738Z,25.89
2022-09-07T11:34:37.953Z,25.96
2022-09-07T11:36:13.826Z,26.01
2022-09-07T11:37:49.120Z,26.08
2022-09-07T11:39:23.942Z,26.15
2022-09-07T11:41:19.051Z,26.19
2022-09-07T11:42:59.749Z,26.26
2022-09-07T11:44:40.990Z,26.29
2022-09-07T11:46:17.951Z,26.34
2022-09-07T11:48:01.429Z,26.45
2022-09-07T11:49:36.159Z,26.55
2022-09-07T11:51:10.316Z,26.62
2022-09-07T11:52:45.765Z,26.71
2022-09-07T11:54:17.781Z,26.77
2022-09-07T11:55:55.095Z,26.84
2022-09-07T11:58:00.761Z,26.91
2022-09-07T11:59:53.806Z,27.02
2022-09-07T12:01:34.158Z,27.11
2022-09-07T12:03:06.389Z,27.17
2022-09-07T12:04:55.522Z,27.15
2022-09-07T12:06:40.824Z,27.11
2022-09-07T12:08:19.082Z,27.09
2022-09-07T12:10:01.341Z,27.10
2022-09-07T12:11:36.691Z,27.12
2022-09-07T12:13:18.324Z,27.12
2022-09-07T12:15:08.446Z,27.08
2022-09-07T12:16:59.522Z,27.06
2022-09-07T12:18:50.204Z,27.09
2022-09-07T12:20:26.160Z,27.13
2022-09-07T12:22:02.889Z,27.16
2022-09-07T12:23:35.370Z,27.16
2022-09-07T12:25:09.118Z,27.17
2022-09-07T12:26:42.831Z,27.14
2022-09-07T12:28:21.908Z,27.14
2022-09-07T12:29:57.529Z,27.13
2022-09-07T12:31:57.355Z,27.17
2022-09-07T12:33:38.314Z,27.18
2022-09-07T12:35:28.630Z,27.21
2022-09-07T12:37:01.985Z,27.25
2022-09-07T12:38:34.285Z,27.31
2022-09-07T12:40:29.656Z,27.37
2022-09-07T12:44:07.461Z,27.40
2022-09-07T12:45:39.505Z,27.40
2022-09-07T12:47:11.564Z,27.36
2022-09-07T12:49:04.766Z,27.33
2022-09-07T12:50:55.939Z,27.24
2022-09-07T12:52:40.301Z,27.22
2022-09-07T12:54:35.398Z,27.24
2022-09-07T12:56:25.528Z,27.32
2022-09-07T12:58:16.303Z,27.37
2022-09-07T12:59:51.261Z,27.35
2022-09-07T13:01:23.731Z,27.34
2022-09-07T13:03:02.841Z,27.28
2022-09-07T13:04:54.751Z,27.26
2022-09-07T13:08:28.663Z,27.31
2022-09-07T13:10:03.970Z,27.31
2022-09-07T13:11:38.382Z,27.35
2022-09-07T13:15:33.366Z,27.43
2022-09-07T13:17:33.017Z,27.44
2022-09-07T13:19:05.676Z,27.46
2022-09-07T13:20:41.472Z,27.50
2022-09-07T13:22:29.208Z,27.51
2022-09-07T13:26:10.742Z,27.50
2022-09-07T13:27:52.391Z,27.50
2022-09-07T13:29:44.750Z,27.52
2022-09-07T13:31:20.591Z,27.57
2022-09-07T13:33:14.118Z,27.59
2022-09-07T13:34:49.215Z,27.57
2022-09-07T13:36:25.767Z,27.59
2022-09-07T13:38:01.760Z,27.59
2022-09-07T13:39:42.165Z,27.59
2022-09-07T13:41:16.859Z,27.63
2022-09-07T13:42:50.287Z,27.65
2022-09-07T13:44:26.421Z,27.68
2022-09-07T13:46:01.499Z,27.70
2022-09-07T13:47:33.831Z,27.74
2022-09-07T13:49:14.265Z,27.75
2022-09-07T13:50:53.369Z,27.75
2022-09-07T13:52:40.811Z,27.73
2022-09-07T13:54:28.239Z,27.75
2022-09-07T13:56:03.467Z,27.77
2022-09-07T13:57:44.046Z,27.78
2022-09-07T13:59:21.128Z,27.73
2022-09-07T14:00:54.638Z,27.71
2022-09-07T14:02:34.977Z,27.71
2022-09-07T14:04:09.482Z,27.75
2022-09-07T14:05:41.610Z,27.76
2022-09-07T14:07:15.038Z,27.79
2022-09-07T14:09:11.055Z,27.80
2022-09-07T14:10:47.637Z,27.77
2022-09-07T14:12:21.798Z,27.77
2022-09-07T14:14:07.389Z,27.78
2022-09-07T14:15:44.225Z,27.78
2022-09-07T14:17:18.301Z,27.75
2022-09-07T14:18:50.398Z,27.75
2022-09-07T14:20:23.455Z,27.74
2022-09-07T14:22:02.870Z,27.75
2022-09-07T14:23:36.737Z,27.74
2022-09-07T14:25:15.317Z,27.71
2022-09-07T14:26:48.871Z,27.67
2022-09-07T14:28:29.997Z,27.66
2022-09-07T14:30:23.444Z,27.66
2022-09-07T14:31:56.539Z,27.67
2022-09-07T14:33:29.911Z,27.65
2022-09-07T14:35:02.943Z,27.62
2022-09-07T14:36:46.495Z,27.64
2022-09-07T14:40:24.402Z,27.71
2022-09-07T14:41:57.681Z,27.68
2022-09-07T14:43:30.242Z,27.68
2022-09-07T14:45:21.412Z,27.66
2022-09-07T14:46:56.803Z,27.67
2022-09-07T14:48:32.684Z,27.65
2022-09-07T14:50:16.740Z,27.64
2022-09-07T14:51:49.727Z,27.68
2022-09-07T14:53:37.122Z,27.69
2022-09-07T14:55:35.875Z,27.69
2022-09-07T14:57:10.939Z,27.70
2022-09-07T14:58:43.165Z,27.73
2022-09-07T15:00:42.290Z,27.75
2022-09-07T15:02:29.979Z,27.78
2022-09-07T15:04:15.985Z,27.81
2022-09-07T15:05:48.760Z,27.86
2022-09-07T15:07:29.801Z,27.93
2022-09-07T15:09:02.419Z,27.98
2022-09-07T15:10:37.464Z,27.99
2022-09-07T15:12:15.906Z,27.99
2022-09-07T15:14:10.161Z,28.01
2022-09-07T15:15:46.770Z,28.04
2022-09-07T15:19:21.819Z,27.93
2022-09-07T15:20:53.848Z,27.82
2022-09-07T15:22:26.302Z,27.73
2022-09-07T15:23:59.133Z,27.64
2022-09-07T15:25:32.114Z,27.55
2022-09-07T15:27:17.585Z,27.51
2022-09-07T15:30:42.226Z,27.38
2022-09-07T15:32:16.649Z,27.33
2022-09-07T15:33:50.274Z,27.29
2022-09-07T15:35:22.615Z,27.24
2022-09-07T15:36:57.242Z,27.20
2022-09-07T15:40:23.907Z,27.08
2022-09-07T15:41:56.728Z,27.05
2022-09-07T15:43:28.960Z,27.01
2022-09-07T15:45:01.964Z,26.95
2022-09-07T15:46:37.120Z,26.89
2022-09-07T15:48:14.201Z,26.83
2022-09-07T15:49:50.600Z,26.76
2022-09-07T15:55:09.492Z,26.48
2022-09-07T15:56:42.986Z,26.41
2022-09-07T15:58:18.580Z,26.33
2022-09-07T15:59:50.768Z,26.24
2022-09-07T16:03:16.561Z,26.04
2022-09-07T16:04:51.624Z,25.97
2022-09-07T16:06:24.673Z,25.88
2022-09-07T16:09:52.459Z,25.68
2022-09-07T16:11:25.950Z,25.61
2022-09-07T16:13:02.359Z,25.54
2022-09-07T16:14:38.993Z,25.47
2022-09-07T16:16:15.490Z,25.40
2022-09-07T16:17:53.806Z,25.32
2022-09-07T16:19:26.087Z,25.26
2022-09-07T16:21:03.508Z,25.20
2022-09-07T16:24:28.592Z,25.05
2022-09-07T16:26:01.611Z,25.01
2022-09-07T16:27:34.041Z,24.96
2022-09-07T16:29:06.389Z,24.89
2022-09-07T16:30:39.510Z,24.83
2022-09-07T16:34:05.178Z,24.66
2022-09-07T16:35:38.916Z,24.59
2022-09-07T16:37:11.122Z,24.51
2022-09-07T16:38:48.262Z,24.43
2022-09-07T16:40:20.508Z,24.36
2022-09-07T16:41:52.855Z,24.27
2022-09-07T16:43:25.094Z,24.21
2022-09-07T16:46:02.626Z,24.14
2022-09-07T16:46:50.457Z,24.07
2022-09-07T16:48:23.068Z,24.02
2022-09-07T16:49:55.706Z,23.97
2022-09-07T16:51:28.740Z,23.91
2022-09-07T16:53:00.886Z,23.84
2022-09-07T16:54:33.155Z,23.75
2022-09-07T16:56:06.674Z,23.69
2022-09-07T16:59:31.161Z,23.56
2022-09-07T17:01:04.488Z,23.50
2022-09-07T17:02:36.628Z,23.43
2022-09-07T17:04:11.161Z,23.36
2022-09-07T17:05:43.920Z,23.27
2022-09-07T17:07:16.885Z,23.21
2022-09-07T17:08:49.369Z,23.14
2022-09-07T17:10:21.397Z,23.07
2022-09-07T17:11:53.534Z,23.01
2022-09-07T17:13:25.895Z,22.97
2022-09-07T17:14:58.033Z,22.94
2022-09-07T17:16:32.110Z,22.90
2022-09-07T17:18:04.313Z,22.88
2022-09-07T17:19:36.903Z,22.85
2022-09-07T17:21:09.798Z,22.82
2022-09-07T17:22:42.618Z,22.78
2022-09-07T17:24:16.565Z,22.73
2022-09-07T17:25:48.893Z,22.72
2022-09-07T17:27:21.152Z,22.68
2022-09-07T17:28:54.371Z,22.65
2022-09-07T17:30:26.604Z,22.63
2022-09-07T17:33:52.689Z,22.55
2022-09-07T17:35:24.755Z,22.50
2022-09-07T17:36:57.206Z,22.46
2022-09-07T17:40:22.887Z,22.34
2022-09-07T17:41:55.817Z,22.29
2022-09-07T17:43:45.543Z,22.22
2022-09-07T17:45:18.324Z,22.15
2022-09-07T17:46:50.722Z,22.08
2022-09-07T17:48:22.753Z,22.03
2022-09-07T17:49:55.061Z,21.97
2022-09-07T17:51:28.734Z,21.91
2022-09-07T17:53:00.818Z,21.87
2022-09-07T17:54:32.868Z,21.82
2022-09-07T17:56:06.429Z,21.77
2022-09-07T17:57:38.773Z,21.72
2022-09-07T18:01:07.352Z,21.63
2022-09-07T18:02:39.881Z,21.59
2022-09-07T18:04:13.265Z,21.57
2022-09-07T18:05:45.413Z,21.55
2022-09-07T18:07:17.761Z,21.51
2022-09-07T18:08:50.343Z,21.49
2022-09-07T18:10:22.440Z,21.47
2022-09-07T18:11:54.950Z,21.44
2022-09-07T18:13:35.816Z,21.41
2022-09-07T18:15:09.626Z,21.38
2022-09-07T18:16:41.798Z,21.38
2022-09-07T18:18:15.737Z,21.34
2022-09-07T18:19:47.776Z,21.31
2022-09-07T18:21:27.705Z,21.28
2022-09-07T18:23:00.031Z,21.25
2022-09-07T18:24:32.328Z,21.22
2022-09-07T18:26:04.405Z,21.19
2022-09-07T18:27:39.238Z,21.17
2022-09-07T18:29:27.228Z,21.13
2022-09-07T18:31:06.982Z,21.07
2022-09-07T18:32:39.381Z,21.04
2022-09-07T18:34:12.077Z,21.00
2022-09-07T18:35:47.392Z,20.96
2022-09-07T18:37:19.680Z,20.92
2022-09-07T18:38:52.446Z,20.88
2022-09-07T18:40:24.610Z,20.85
2022-09-07T18:41:56.672Z,20.80
2022-09-07T18:43:30.653Z,20.77
2022-09-07T18:46:55.442Z,20.69
2022-09-07T18:48:27.534Z,20.68
2022-09-07T18:49:59.751Z,20.65
2022-09-07T18:52:51.568Z,20.62
2022-09-07T18:53:24.751Z,20.61
2022-09-07T18:54:56.849Z,20.60
2022-09-07T18:56:29.075Z,20.60
2022-09-07T18:58:02.826Z,20.60
2022-09-07T18:59:35.091Z,20.59
2022-09-07T19:01:08.828Z,20.55
2022-09-07T19:02:41.339Z,20.53
2022-09-07T19:04:14.258Z,20.52
2022-09-07T19:05:50.261Z,20.51
2022-09-07T19:07:27.340Z,20.48
2022-09-07T19:09:03.800Z,20.45
2022-09-07T19:10:37.253Z,20.43
2022-09-07T19:12:10.112Z,20.41
2022-09-07T19:13:42.543Z,20.38
2022-09-07T19:15:14.815Z,20.36
2022-09-07T19:16:47.224Z,20.32
2022-09-07T19:18:19.409Z,20.29
2022-09-07T19:19:52.828Z,20.26
2022-09-07T19:21:32.284Z,20.22
2022-09-07T19:23:04.865Z,20.20
2022-09-07T19:24:37.523Z,20.18
2022-09-07T19:26:10.559Z,20.13
2022-09-07T19:27:42.882Z,20.10
2022-09-07T19:29:18.234Z,20.08
2022-09-07T19:30:50.426Z,20.04
2022-09-07T19:32:22.479Z,20.02
2022-09-07T19:33:58.330Z,19.97
2022-09-07T19:35:34.118Z,19.95
2022-09-07T19:37:08.820Z,19.93
2022-09-07T19:38:41.441Z,19.89
2022-09-07T19:40:18.983Z,19.86
2022-09-07T19:42:02.456Z,19.81
2022-09-07T19:43:35.211Z,19.78
2022-09-07T19:45:08.026Z,19.75
2022-09-07T19:46:41.547Z,19.74
2022-09-07T19:48:14.391Z,19.71
2022-09-07T19:49:46.581Z,19.67
2022-09-07T19:51:19.939Z,19.64
2022-09-07T19:52:52.161Z,19.62
2022-09-07T19:54:24.805Z,19.59
2022-09-07T19:56:04.440Z,19.57
2022-09-07T19:57:36.474Z,19.57
2022-09-07T19:59:09.027Z,19.56
2022-09-07T20:00:42.001Z,19.56
2022-09-07T20:02:14.232Z,19.55
2022-09-07T20:03:48.552Z,19.55
2022-09-07T20:05:20.829Z,19.54
2022-09-07T20:06:53.159Z,19.53
2022-09-07T20:08:25.340Z,19.50
2022-09-07T20:09:57.409Z,19.52
2022-09-07T20:11:29.910Z,19.51
2022-09-07T20:13:02.559Z,19.50
2022-09-07T20:14:34.813Z,19.50
2022-09-07T20:16:08.571Z,19.49
2022-09-07T20:17:40.684Z,19.48
2022-09-07T20:19:15.265Z,19.50
2022-09-07T20:20:47.553Z,19.53
2022-09-07T20:22:19.573Z,19.53
2022-09-07T20:23:52.031Z,19.49
2022-09-07T20:25:24.552Z,19.45
2022-09-07T20:26:56.721Z,19.41
2022-09-07T20:28:29.712Z,19.41
2022-09-07T20:30:02.311Z,19.38
2022-09-07T20:31:34.725Z,19.34
2022-09-07T20:33:09.323Z,19.30
2022-09-07T20:34:41.566Z,19.28
2022-09-07T20:36:15.209Z,19.25
2022-09-07T20:37:48.244Z,19.24
2022-09-07T20:39:20.914Z,19.21
2022-09-07T20:40:53.792Z,19.17
2022-09-07T20:42:25.912Z,19.14
2022-09-07T20:44:00.082Z,19.09
2022-09-07T20:45:35.018Z,19.05
2022-09-07T20:47:07.082Z,19.02
2022-09-07T20:48:39.409Z,18.98
2022-09-07T20:50:11.773Z,18.94
2022-09-07T20:51:44.242Z,18.89
2022-09-07T20:53:16.419Z,18.86
2022-09-07T20:54:51.425Z,18.83
2022-09-07T20:56:25.897Z,18.80
2022-09-07T20:57:58.085Z,18.77
2022-09-07T20:59:30.103Z,18.75
2022-09-07T21:01:03.031Z,18.72
2022-09-07T21:02:35.913Z,18.70
2022-09-07T21:04:08.293Z,18.70
2022-09-07T21:05:40.501Z,18.68
2022-09-07T21:07:12.594Z,18.69
2022-09-07T21:08:45.990Z,18.67
2022-09-07T21:10:18.483Z,18.66
2022-09-07T21:11:53.076Z,18.63
2022-09-07T21:13:28.779Z,18.61
2022-09-07T21:15:01.138Z,18.59
2022-09-07T21:16:35.279Z,18.58
2022-09-07T21:18:11.812Z,18.58
2022-09-07T21:19:43.950Z,18.59
2022-09-07T21:21:21.292Z,18.57
2022-09-07T21:22:53.463Z,18.56
2022-09-07T21:24:25.704Z,18.56
2022-09-07T21:25:58.017Z,18.56
2022-09-07T21:27:38.525Z,18.55
2022-09-07T21:29:15.218Z,18.53
2022-09-07T21:30:55.106Z,18.53
2022-09-07T21:32:27.198Z,18.52
2022-09-07T21:34:00.641Z,18.52
2022-09-07T21:35:33.597Z,18.53